Domov               UVHVVR             MKGP            O straneh              
ZDRAVSTVENO VARSTVO RASTLIN
  MREŽA AGROMET. POSTAJ
 ► PROGNOSTIČNA OBVESTILA
AGROMETEOROLOŠKI PODATKI -
ARSO
OBVLADOVANJE TVEGANJ ZARADI
NEUGODNIH VREMENSKIH RAZMER
  ► NARAVNE NESREČE
  ► SUŠA/MOČA
  ► NAMAKANJE
  ► ŽLED (gozdarstvo)
KARTOGRAFSKI PRIKAZI
SPLETNE POVEZAVE
PROJEKTI IN PUBLIKACIJE

AGROMETEOROLOŠKA MREŽA: VREMENSKE POSTAJE IN FENOLOŠKA OPAZOVANJA

Pregled podatkov za lokacijo Blanca, meteorološka postaja 27263

Pregled senzorjev na lokaciji

ID Ime Zadnja
vrednost
Datum
zadnje
spremembe
Tip
senzorja
2153 Relativna vlaga 2 m (% RH) 93,13 % RH 24.8.2017 08:33 Generic 0 - 100 %
2154 Omočenost lista (U) 0 U 24.8.2017 08:33 A730WET
2155 Padavine 0.2 mm (mm) 0 mm 24.8.2017 08:34 Generic
2158 Temperatura 2 m ( °C) 14,55 °C 24.8.2017 08:33 Generic -40 - +60 °C

Pregled podatkov zadnjih 24 ur

Zap.
št.
Datum in čas Blanca
Omočenost
lista
Padavine
0.2
mm
Relativna
vlaga
2
m
Temperatura
2
m
0 24.8.2017 07:30 0 0 93,67 14,14
1 24.8.2017 07:00 0,03 0 94,41 12,87
2 24.8.2017 06:30 0 0 94,3 11,81
3 24.8.2017 06:00 0 0 94,19 11,13
4 24.8.2017 05:30 0 0 93,91 10,49
5 24.8.2017 05:00 0 0 93,76 10,58
6 24.8.2017 04:30 0 0 93,75 10,83
7 24.8.2017 04:00 0 0 93,51 10,87
8 24.8.2017 03:30 0 0 93,35 11,07
9 24.8.2017 03:00 0 0 93,17 11,27
10 24.8.2017 02:30 0 0 92,8 11,38
11 24.8.2017 02:00 0 0 92,64 11,79
12 24.8.2017 01:30 0 0 92,17 11,95
13 24.8.2017 01:00 0 0 91,35 12,28
14 24.8.2017 00:30 0 0 90,98 12,46
15 24.8.2017 00:00 0 0 90,31 12,79
16 23.8.2017 23:30 0 0 89,61 13,02
17 23.8.2017 23:00 0 0 88,97 13,31
18 23.8.2017 22:30 0 0 88,13 13,75
19 23.8.2017 22:00 0 0 86,99 14,21
20 23.8.2017 21:30 0 0 86,43 14,68
21 23.8.2017 21:00 0 0 84,51 15,34
22 23.8.2017 20:30 0 0 81,1 15,94
23 23.8.2017 20:00 0 0 78,16 16,58
24 23.8.2017 19:30 0 0 72,22 17,37
25 23.8.2017 19:00 0 0 66,48 18,4
26 23.8.2017 18:30 0 0 55,79 21,35
27 23.8.2017 18:00 0 0 45,84 23,36
28 23.8.2017 17:30 0 0 40,07 24,71
29 23.8.2017 17:00 0 0 37,94 25,34
30 23.8.2017 16:30 0 0 36,63 25,84
31 23.8.2017 16:00 0 0 35,93 25,95
32 23.8.2017 15:30 0 0 37,04 25,97
33 23.8.2017 15:00 0 0 38,18 25,99
34 23.8.2017 14:30 0 0 39,47 25,39
35 23.8.2017 14:00 0 0 37,89 25,82
36 23.8.2017 13:30 0 0 36,82 25,6
37 23.8.2017 13:00 0 0 38,22 25,24
38 23.8.2017 12:30 0 0 38,54 24,71
39 23.8.2017 12:00 0 0 40,75 24,31
40 23.8.2017 11:30 0 0 43,69 23,62
41 23.8.2017 11:00 0 0 41,39 23,24
42 23.8.2017 10:30 0 0 43,5 22,59
43 23.8.2017 10:00 0 0 49,56 21,7
44 23.8.2017 09:30 0 0 55,57 19,91
45 23.8.2017 09:00 0 0 62,07 18,17
© 2011 Ministrstvo za kmetijstvo, gozdarstvo in prehrano. Vse pravice pridržane.